Saint George, UT

1:04 AM MDT on September 03, 2014 (GMT -0600)
Saint George Municipal | Change Station
CLOSE
Current Station
Airport
Location: St. George,
Elevation: 2940 ft
Nearby Weather Stations

Elev 2940 ft 37.09 °N, 113.59 °W | Updated 9 minutes ago

Clear
Clear
79 °F
Feels Like 79 °F
N
5
Wind Variable Wind from NW

Today
High -- | Low -- °F
--% Chance of Precip.
Yesterday
High -- | Low -- °F
Precip. -- in
7:06 AM 7:59 PM
First Quarter, 59% visible
Pressure 29.83 in
Visibility 10.0 miles
Clouds Clear
Dew Point 39 °F
Humidity 24%
Rainfall 0.00 in
Snow Depth Not available.
UV 0 out of 12
Pollen 7.50 out of 12
Air Quality Not available.
Flu Activity Not available.
METAR KSGU 030655Z AUTO 31004KT 10SM CLR 26/04 A2983 RMK AO1

More Conditions Fewer Conditions

Pressure 29.83 in
Visibility 10.0 miles
Clouds Clear
Dew Point 39 °F
Humidity 24%
Rainfall 0.00 in
Snow Depth Not available.
UV 0 out of 12
Pollen 7.50 out of 12
Air Quality Not available.
Flu Activity Not available.
METAR KSGU 030655Z AUTO 31004KT 10SM CLR 26/04 A2983 RMK AO1

More Conditions Fewer Conditions

10-Day Weather Forecast

Almanac

Astronomy

Sep. 03, 2014 Rise Set
Actual Time 7:06 AM MDT 7:59 PM MDT
Civil Twilight 6:40 AM MDT 8:26 PM MDT
Nautical Twilight 6:08 AM MDT 8:57 PM MDT
Astronomical Twilight 5:36 AM MDT 9:29 PM MDT
Moon 3:41 PM MDT 1:08 AM MDT
Length of Visible Light 13h 46m
Length of Day
12h 53m
Tomorrow will be 2m 18s shorter.
First Quarter, 59% of the Moon is Illuminated
Today
First Quarter
Sep 8
Full
Sep 15
Last Quarter
Sep 24
New
Oct 1
First Quarter

Today's Extremes

State Highs State Lows

Community

WunderPhotos

Upload Photos

1,749,888 photos uploaded!

Nearby

Snow Depth

Station Depth Elevation
Midway Valley 4 in 9800 ft
Long Valley Jct 1 in 7360 ft
Agua Canyon 4 in 8900 ft
Merchant Valley 0 in 8750 ft
Clayton Springs 0 in 10000 ft

Earthquake Activity

City Distance Mag. Time & Date
No recent earthquake activity has been reported nearby.
Minimum magnitude displayed is 2.5.

Coastal Water Temperatures

Place Temperature
No Stations Reporting

Nearby Weather Stations